Time;durP1;ratioP1;P1;durP2;ratioP2;P2;SDS_P1;SDS_P2;PMS_P1;PMS_P2;Temp;Humidity;BMP_temperature;BMP_pressure;BME280_temperature;BME280_humidity;BME280_pressure;Samples;Min_cycle;Max_cycle;Signal;HPM_P1;HPM_P2
2022/08/15 00:01:38;;;;;;;;;;;22.20;67.60;;;21.59;62.33;95547.09;4149567;34;20132;-82
2022/08/15 00:04:08;;;;;;;;;;;22.20;67.60;;;21.59;62.33;95556.25;4149283;34;20057;-82
2022/08/15 00:06:40;;;;;;;;;;;22.20;67.80;;;21.59;62.43;95561.00;4126900;34;20051;-82
2022/08/15 00:09:14;;;;;;;;;;;22.20;67.70;;;21.59;62.29;95544.31;4150013;34;19981;-82
2022/08/15 00:11:46;;;;;;;;;;;22.20;67.60;;;21.59;62.27;95547.09;4127027;34;20104;-82
2022/08/15 00:14:19;;;;;;;;;;;22.20;67.60;;;21.58;61.92;95543.47;4126729;34;19919;-82
2022/08/15 00:16:48;;;;;;;;;;;22.20;67.50;;;21.58;62.19;95551.03;4149360;34;20438;-82
2022/08/15 00:19:19;;;;;;;;;;;22.20;67.50;;;21.58;62.24;95551.03;4126301;34;20142;-82
2022/08/15 00:21:49;;;;;;;;;;;22.20;67.50;;;21.57;62.15;95543.84;4150303;34;19910;-82
2022/08/15 00:24:20;;;;;;;;;;;22.20;67.50;;;21.57;62.23;95535.50;4149286;34;19903;-82
2022/08/15 00:26:49;;;;;;;;;;;22.20;67.40;;;21.57;62.15;95538.28;4109541;34;19904;-82
2022/08/15 00:29:21;;;;;;;;;;;22.10;67.40;;;21.56;61.82;95531.09;4121921;34;20377;-82
2022/08/15 00:31:53;;;;;;;;;;;22.20;67.50;;;21.56;62.23;95525.50;4125476;34;19904;-82
2022/08/15 00:34:22;;;;;;;;;;;22.20;67.40;;;21.56;62.06;95525.50;4124596;34;19939;-81
2022/08/15 00:36:51;;;;;;;;;;;22.20;67.50;;;21.57;62.17;95538.28;4124453;34;19905;-82
2022/08/15 00:39:21;;;;;;;;;;;22.20;67.40;;;21.55;62.43;95541.44;4124094;34;19904;-82
2022/08/15 00:41:50;;;;;;;;;;;22.10;67.50;;;21.55;62.15;95543.38;4124433;34;20219;-82
2022/08/15 00:44:22;;;;;;;;;;;22.20;67.50;;;21.55;62.41;95538.66;4102056;34;20382;-82
2022/08/15 00:46:53;;;;;;;;;;;22.20;67.60;;;21.54;62.08;95531.44;4102159;34;20160;-82
2022/08/15 00:49:22;;;;;;;;;;;22.10;67.60;;;21.54;62.24;95537.03;4123998;34;20217;-82
2022/08/15 00:51:52;;;;;;;;;;;22.10;67.50;;;21.54;62.13;95547.34;4124333;34;19971;-81
2022/08/15 00:54:29;;;;;;;;;;;22.20;67.50;;;21.51;62.30;95534.13;4102012;34;20082;-82
2022/08/15 00:57:02;;;;;;;;;;;22.10;67.40;;;21.53;62.23;95546.53;4124169;34;20219;-82
2022/08/15 00:59:35;;;;;;;;;;;22.10;67.40;;;21.53;62.23;95537.38;4101505;34;19905;-82
2022/08/15 01:02:07;;;;;;;;;;;22.20;67.40;;;21.53;62.04;95537.38;4101700;34;19927;-81
2022/08/15 01:04:36;;;;;;;;;;;22.10;67.40;;;21.52;62.00;95522.66;4124272;34;19904;-82
2022/08/15 01:07:05;;;;;;;;;;;22.10;67.40;;;21.51;61.83;95526.59;4125148;34;19904;-81
2022/08/15 01:09:35;;;;;;;;;;;22.10;67.50;;;21.51;61.86;95531.34;4123618;34;19904;-81
2022/08/15 01:12:10;;;;;;;;;;;22.10;67.50;;;21.51;62.33;95525.75;4101771;34;20131;-81
2022/08/15 01:14:43;;;;;;;;;;;22.10;67.60;;;21.51;62.14;95528.56;4124066;34;19904;-81
2022/08/15 01:17:11;;;;;;;;;;;22.10;67.50;;;21.51;61.97;95522.97;4101654;34;20093;-81
2022/08/15 01:19:42;;;;;;;;;;;22.10;67.40;;;21.51;61.96;95531.34;4101239;34;19904;-81
2022/08/15 01:22:26;;;;;;;;;;;22.10;67.40;;;21.50;62.14;95522.19;4123896;34;20379;-81
2022/08/15 01:25:00;;;;;;;;;;;22.10;67.40;;;21.50;62.03;95522.19;4124052;34;20373;-82
2022/08/15 01:27:33;;;;;;;;;;;22.10;67.40;;;21.49;62.09;95522.56;4101339;34;19957;-82
2022/08/15 01:30:01;;;;;;;;;;;22.10;67.50;;;21.49;62.07;95523.34;4123829;34;19904;-82
2022/08/15 01:32:32;;;;;;;;;;;22.10;67.40;;;21.48;62.23;95527.31;4101636;34;19904;-82
2022/08/15 01:35:03;;;;;;;;;;;22.10;67.40;;;21.49;61.99;95528.13;4101569;34;20082;-82
2022/08/15 01:37:32;;;;;;;;;;;22.10;67.40;;;21.49;62.20;95522.56;4101226;34;20238;-82
2022/08/15 01:40:05;;;;;;;;;;;22.10;67.50;;;21.49;61.84;95528.13;4123664;34;19904;-82
2022/08/15 01:42:37;;;;;;;;;;;22.10;67.50;;;21.48;62.14;95532.06;4124773;34;19911;-82
2022/08/15 01:45:09;;;;;;;;;;;22.10;67.60;;;21.48;62.32;95532.06;4101615;34;19952;-82
2022/08/15 01:47:41;;;;;;;;;;;22.10;67.50;;;21.48;62.16;95532.06;4123392;34;20024;-82
2022/08/15 01:50:12;;;;;;;;;;;22.10;67.40;;;21.48;62.16;95537.66;4123870;34;19942;-82
2022/08/15 01:52:44;;;;;;;;;;;22.10;67.50;;;21.48;61.97;95532.06;4101358;34;20395;-81
2022/08/15 01:55:14;;;;;;;;;;;22.10;67.40;;;21.47;61.98;95531.25;4123765;34;20311;-81
2022/08/15 01:57:44;;;;;;;;;;;22.10;67.30;;;21.46;61.93;95536.03;4123222;34;20096;-82
2022/08/15 02:00:14;;;;;;;;;;;22.00;67.20;;;21.46;62.09;95529.63;4123717;34;20139;-82
2022/08/15 02:02:43;;;;;;;;;;;22.10;67.50;;;21.45;62.08;95534.41;4137730;28;19892;-85
2022/08/15 02:05:11;;;;;;;;;;;22.00;67.40;;;21.44;61.99;95516.06;4128150;34;19913;-83
2022/08/15 02:07:40;;;;;;;;;;;22.00;67.30;;;21.45;61.96;95522.44;4150247;34;19975;-83
2022/08/15 02:10:10;;;;;;;;;;;22.00;67.40;;;21.45;62.24;95523.25;4150696;34;20037;-84
2022/08/15 02:12:42;;;;;;;;;;;22.10;67.60;;;21.45;61.61;95517.69;4146470;34;20176;-83
2022/08/15 02:15:14;;;;;;;;;;;22.10;67.50;;;21.45;62.09;95516.88;4123669;34;19904;-84
2022/08/15 02:17:43;;;;;;;;;;;22.10;67.60;;;21.45;62.31;95505.72;4122922;34;20160;-84
2022/08/15 02:20:12;;;;;;;;;;;22.10;67.60;;;21.44;62.08;95516.06;4123467;34;20173;-84
2022/08/15 02:22:41;;;;;;;;;;;22.00;67.40;;;21.43;61.92;95514.47;4124230;34;20548;-84
2022/08/15 02:25:10;;;;;;;;;;;22.00;67.40;;;21.43;62.24;95514.47;4146020;34;19911;-84
2022/08/15 02:27:39;;;;;;;;;;;22.00;67.40;;;21.43;62.00;95511.66;4145321;34;19904;-85
2022/08/15 02:30:13;;;;;;;;;;;22.00;67.50;;;21.44;62.26;95509.69;4123398;34;19904;-85
2022/08/15 02:32:43;;;;;;;;;;;22.00;67.50;;;21.43;62.11;95508.06;4123192;34;20171;-85
2022/08/15 02:35:13;;;;;;;;;;;22.00;67.50;;;21.44;62.45;95509.69;4123190;34;19904;-85
2022/08/15 02:37:43;;;;;;;;;;;22.00;67.60;;;21.44;62.25;95506.91;4100366;34;19981;-85
2022/08/15 02:40:14;;;;;;;;;;;22.00;67.60;;;21.42;62.12;95504.47;4123217;34;19911;-85
2022/08/15 02:42:45;;;;;;;;;;;22.00;67.60;;;21.41;62.64;95511.22;4100800;34;19904;-85
2022/08/15 02:45:16;;;;;;;;;;;22.00;67.60;;;21.42;62.37;95521.19;4145692;34;20058;-84
2022/08/15 02:47:45;;;;;;;;;;;22.00;67.70;;;21.42;62.47;95517.63;4122708;34;19969;-85
2022/08/15 02:50:15;;;;;;;;;;;22.00;67.70;;;21.42;62.29;95506.47;4123146;34;19904;-85
2022/08/15 02:52:46;;;;;;;;;;;22.00;67.60;;;21.42;62.26;95492.56;4122488;34;19904;-85
2022/08/15 02:55:15;;;;;;;;;;;22.00;67.60;;;21.41;62.40;95497.28;4123084;34;20189;-85
2022/08/15 02:57:44;;;;;;;;;;;22.00;67.60;;;21.39;62.22;95488.50;4100159;34;20030;-85
2022/08/15 03:00:16;;;;;;;;;;;22.00;67.60;;;21.39;62.44;95494.06;4122242;34;19927;-85
2022/08/15 03:02:55;;;;;;;;;;;22.00;67.60;;;21.39;62.46;95491.28;4122046;34;20123;-84
2022/08/15 03:05:31;;;;;;;;;;;22.00;67.60;;;21.39;62.16;95501.63;4101070;34;19940;-84
2022/08/15 03:08:10;;;;;;;;;;;22.00;67.60;;;21.41;62.13;95502.06;4100272;34;19911;-85
2022/08/15 03:10:39;;;;;;;;;;;22.00;67.50;;;21.40;62.09;95500.44;4122996;34;20150;-85
2022/08/15 03:13:11;;;;;;;;;;;22.00;67.60;;;21.39;62.30;95502.41;4100423;34;19904;-85
2022/08/15 03:15:45;;;;;;;;;;;22.00;67.60;;;21.39;62.39;95502.41;4100593;34;20070;-86
2022/08/15 03:18:15;;;;;;;;;;;22.00;67.60;;;21.39;62.34;95501.63;4099914;34;20142;-85
2022/08/15 03:20:45;;;;;;;;;;;22.00;67.70;;;21.39;62.39;95501.63;4122756;34;19904;-85
2022/08/15 03:23:18;;;;;;;;;;;22.00;67.70;;;21.38;62.40;95502.78;4122751;34;19904;-85
2022/08/15 03:25:51;;;;;;;;;;;22.00;67.70;;;21.39;62.22;95499.63;4122714;34;19904;-85
2022/08/15 03:28:23;;;;;;;;;;;22.00;67.70;;;21.39;62.31;95505.19;4099893;34;19904;-85
2022/08/15 03:30:54;;;;;;;;;;;22.00;67.70;;;21.39;62.49;95509.97;4100446;34;20074;-85
2022/08/15 03:33:23;;;;;;;;;;;22.00;67.70;;;21.39;62.44;95507.19;4122668;34;20098;-85
2022/08/15 03:35:52;;;;;;;;;;;22.00;67.70;;;21.38;62.49;95491.66;4122614;34;19904;-86
2022/08/15 03:38:22;;;;;;;;;;;22.00;67.80;;;21.38;62.27;95500.78;4144681;34;20188;-85
2022/08/15 03:40:51;;;;;;;;;;;22.00;67.70;;;21.39;62.48;95504.41;4145217;34;20315;-85
2022/08/15 03:43:22;;;;;;;;;;;22.00;67.60;;;21.39;62.10;95496.03;4122457;34;20215;-85
2022/08/15 03:45:54;;;;;;;;;;;22.00;67.60;;;21.39;62.25;95499.63;4100216;34;19904;-85
2022/08/15 03:48:29;;;;;;;;;;;22.00;67.60;;;21.39;62.41;95493.25;4122114;34;20107;-85
2022/08/15 03:51:01;;;;;;;;;;;22.00;67.60;;;21.41;62.54;95494.50;4122336;34;20162;-85
2022/08/15 03:53:36;;;;;;;;;;;22.00;67.60;;;21.40;62.30;95494.88;4100172;34;20000;-84
2022/08/15 03:56:06;;;;;;;;;;;22.00;67.60;;;21.42;62.42;95503.69;4100349;34;19905;-84
2022/08/15 03:58:38;;;;;;;;;;;22.00;67.60;;;21.43;62.33;95500.53;4099649;34;19906;-84
2022/08/15 04:01:13;;;;;;;;;;;22.00;67.40;;;21.45;62.17;95506.56;4122506;34;20214;-85
2022/08/15 04:03:43;;;;;;;;;;;22.00;67.40;;;21.46;62.17;95518.50;4122939;34;20227;-85
2022/08/15 04:06:15;;;;;;;;;;;22.00;67.40;;;21.48;62.38;95512.59;4124875;34;19946;-83
2022/08/15 04:08:47;;;;;;;;;;;22.10;67.60;;;21.49;62.06;95508.63;4124364;34;20479;-84
2022/08/15 04:11:17;;;;;;;;;;;22.10;67.30;;;21.50;61.81;95521.38;4124712;34;20070;-85
2022/08/15 04:13:46;;;;;;;;;;;22.10;67.20;;;21.52;61.89;95521.81;4124605;34;20173;-85
2022/08/15 04:16:17;;;;;;;;;;;22.10;67.10;;;21.52;62.05;95517.06;4078096;34;20032;-85
2022/08/15 04:18:46;;;;;;;;;;;22.10;67.40;;;21.53;62.25;95518.69;4097235;34;19911;-85
2022/08/15 04:21:15;;;;;;;;;;;22.10;67.50;;;21.54;62.16;95525.06;4097971;34;19905;-84
2022/08/15 04:23:45;;;;;;;;;;;22.10;67.70;;;21.56;61.92;95522.72;4075845;34;19952;-84
2022/08/15 04:26:14;;;;;;;;;;;22.20;67.60;;;21.57;62.06;95513.22;4075833;34;19905;-84
2022/08/15 04:28:43;;;;;;;;;;;22.20;67.70;;;21.59;62.73;95516.44;4097503;34;20077;-85
2022/08/15 04:31:21;;;;;;;;;;;22.20;67.90;;;21.60;62.66;95523.66;4075765;34;19928;-84
2022/08/15 04:33:51;;;;;;;;;;;22.20;67.90;;;21.62;62.64;95521.34;4097719;34;20168;-85
2022/08/15 04:36:22;;;;;;;;;;;22.20;68.00;;;21.63;62.67;95527.69;4075674;34;19906;-85
2022/08/15 04:38:53;;;;;;;;;;;22.20;68.10;;;21.63;63.00;95533.28;4097212;34;20210;-84
2022/08/15 04:41:22;;;;;;;;;;;22.20;67.90;;;21.67;62.88;95534.97;4075745;34;20404;-85
2022/08/15 04:43:51;;;;;;;;;;;22.30;68.10;;;21.68;62.66;95531.03;4075529;34;19928;-85
2022/08/15 04:46:24;;;;;;;;;;;22.30;68.20;;;21.69;62.48;95532.66;4075699;34;19916;-86
2022/08/15 04:48:52;;;;;;;;;;;22.30;68.10;;;21.72;62.81;95542.25;4075180;34;19904;-86
2022/08/15 04:51:21;;;;;;;;;;;22.30;67.90;;;21.74;62.62;95537.97;4097796;34;20169;-86
2022/08/15 04:53:50;;;;;;;;;;;22.30;67.90;;;21.74;62.68;95532.38;4119718;34;20123;-85
2022/08/15 04:56:19;;;;;;;;;;;22.30;67.90;;;21.77;62.69;95528.84;4075475;34;19904;-85
2022/08/15 04:58:48;;;;;;;;;;;22.40;67.90;;;21.75;62.41;95522.84;4097161;34;20414;-85
2022/08/15 05:01:20;;;;;;;;;;;22.40;67.80;;;21.79;62.50;95527.69;4075452;34;20086;-85
2022/08/15 05:03:54;;;;;;;;;;;22.40;67.80;;;21.79;62.98;95536.88;4097269;34;19911;-85
2022/08/15 05:06:23;;;;;;;;;;;22.40;67.80;;;21.77;62.73;95531.66;4097589;34;19905;-85
2022/08/15 05:08:54;;;;;;;;;;;22.40;67.80;;;21.83;62.64;95534.97;4097028;34;19912;-85
2022/08/15 05:11:27;;;;;;;;;;;22.40;67.70;;;21.85;62.34;95531.84;4075082;34;20155;-84
2022/08/15 05:13:59;;;;;;;;;;;22.40;67.60;;;21.88;62.56;95528.34;4075460;34;20130;-85
2022/08/15 05:16:32;;;;;;;;;;;22.50;67.70;;;21.89;62.24;95530.75;4096902;34;19905;-84
2022/08/15 05:19:04;;;;;;;;;;;22.50;67.60;;;21.91;62.41;95528.41;4096786;34;20223;-85
2022/08/15 05:21:35;;;;;;;;;;;22.60;67.50;;;21.93;62.51;95530.84;4075295;34;19951;-86
2022/08/15 05:24:09;;;;;;;;;;;22.60;67.50;;;21.99;62.15;95537.75;4075257;34;19905;-83
2022/08/15 05:26:38;;;;;;;;;;;22.60;67.30;;;22.04;62.16;95543.03;4075321;34;19904;-85
2022/08/15 05:29:07;;;;;;;;;;;22.60;67.20;;;22.12;61.61;95541.22;4119042;34;20216;-85
2022/08/15 05:31:36;;;;;;;;;;;22.70;67.00;;;22.22;61.78;95531.50;4075223;34;19912;-85
2022/08/15 05:34:11;;;;;;;;;;;22.80;66.90;;;22.30;61.42;95529.69;4075056;34;20144;-85
2022/08/15 05:36:50;;;;;;;;;;;22.90;66.70;;;22.36;61.15;95526.25;4119481;34;20136;-85
2022/08/15 05:39:21;;;;;;;;;;;22.90;66.50;;;22.40;61.25;95520.75;4119056;34;20135;-85
2022/08/15 05:41:56;;;;;;;;;;;23.00;66.40;;;22.44;61.06;95529.22;4097109;34;19904;-85
2022/08/15 05:44:29;;;;;;;;;;;23.00;66.30;;;22.45;61.37;95519.69;4098007;34;19911;-85
2022/08/15 05:47:04;;;;;;;;;;;23.10;66.30;;;22.50;61.07;95525.78;4098083;34;19912;-85
2022/08/15 05:49:45;;;;;;;;;;;23.10;66.00;;;22.52;60.85;95531.03;4074547;34;19905;-86
2022/08/15 05:52:31;;;;;;;;;;;23.10;65.90;;;22.55;60.77;95523.88;4096968;34;20104;-86
2022/08/15 05:55:15;;;;;;;;;;;23.20;65.70;;;22.55;60.70;95524.69;4074054;34;19911;-86
2022/08/15 05:58:03;;;;;;;;;;;23.10;65.70;;;22.56;60.71;95522.72;4095965;34;20223;-86
2022/08/15 06:00:34;;;;;;;;;;;23.20;65.70;;;22.56;60.62;95517.94;4074966;34;20165;-85
2022/08/15 06:03:10;;;;;;;;;;;23.20;65.60;;;22.59;60.86;95525.59;4098783;34;19911;-86
2022/08/15 06:05:44;;;;;;;;;;;23.20;65.60;;;22.60;60.33;95524.41;4101205;34;19904;-86
2022/08/15 06:08:18;;;;;;;;;;;23.20;65.50;;;22.62;60.71;95524.03;4123205;34;19904;-86
2022/08/15 06:10:50;;;;;;;;;;;23.30;65.60;;;22.64;60.39;95524.47;4101312;34;20017;-84
2022/08/15 06:13:22;;;;;;;;;;;23.20;65.30;;;22.65;60.24;95526.94;4101096;34;20023;-84
2022/08/15 06:15:53;;;;;;;;;;;23.30;65.40;;;22.67;60.47;95518.19;4123650;34;20260;-84
2022/08/15 06:18:22;;;;;;;;;;;23.30;65.40;;;22.70;60.57;95519.41;4122947;34;20038;-85
2022/08/15 06:20:57;;;;;;;;;;;23.30;65.50;;;22.72;60.38;95525.44;4101028;34;19904;-85
2022/08/15 06:23:36;;;;;;;;;;;23.30;65.50;;;22.75;60.98;95530.28;4100926;34;19911;-85
2022/08/15 06:26:17;;;;;;;;;;;23.40;65.40;;;22.75;60.70;95524.72;4101159;34;19911;-85
2022/08/15 06:28:58;;;;;;;;;;;23.40;65.40;;;22.74;60.36;95528.69;4122351;34;19911;-85
2022/08/15 06:31:31;;;;;;;;;;;23.40;65.40;;;22.72;60.40;95525.44;4123475;34;20172;-85
2022/08/15 06:34:08;;;;;;;;;;;23.40;65.40;;;22.70;60.64;95522.22;4123221;34;19903;-85
2022/08/15 06:36:42;;;;;;;;;;;23.30;65.40;;;22.63;60.45;95520.91;4098817;34;19905;-84
2022/08/15 06:39:46;;;;;;;;;;;23.30;65.50;;;22.61;60.88;95522.41;4096084;34;19905;-84
2022/08/15 06:42:19;;;;;;;;;;;23.30;65.70;;;22.58;60.91;95518.38;4074366;34;19905;-85
2022/08/15 06:44:58;;;;;;;;;;;23.20;65.80;;;22.55;61.04;95521.09;4074467;34;20131;-84
2022/08/15 06:47:28;;;;;;;;;;;23.20;65.90;;;22.52;61.47;95522.66;4074124;34;20092;-86
2022/08/15 06:50:04;;;;;;;;;;;23.20;66.00;;;22.55;61.06;95526.69;4096239;34;19912;-84
2022/08/15 06:52:35;;;;;;;;;;;23.20;66.10;;;22.56;61.11;95519.94;4100375;34;20135;-86
2022/08/15 06:55:05;;;;;;;;;;;23.20;66.20;;;22.57;61.02;95519.56;4096415;34;19912;-85
2022/08/15 06:57:41;;;;;;;;;;;23.20;66.00;;;22.55;61.09;95516.31;4074014;34;20396;-86
2022/08/15 07:00:15;;;;;;;;;;;23.20;66.00;;;22.57;61.22;95519.56;4096109;34;20025;-86
2022/08/15 07:02:58;;;;;;;;;;;23.20;66.10;;;22.57;60.96;95519.56;4074082;34;20467;-86
2022/08/15 07:05:30;;;;;;;;;;;23.20;66.10;;;22.58;61.13;95520.38;4118477;34;19909;-85
2022/08/15 07:08:10;;;;;;;;;;;23.20;66.10;;;22.61;61.18;95520.44;4095621;34;20004;-85
2022/08/15 07:11:17;;;;;;;;;;;23.20;66.00;;;22.63;60.80;95514.50;4096231;34;19964;-85
2022/08/15 07:17:54;;;;;;;;;;;23.30;66.00;;;22.68;60.82;95508.63;4088830;34;20492;-86
2022/08/15 07:21:14;;;;;;;;;;;23.20;65.80;;;22.69;60.80;95515.84;4095958;34;20161;-87
2022/08/15 07:24:12;;;;;;;;;;;23.30;65.90;;;22.74;60.62;95503.56;4072614;34;19976;-87
2022/08/15 07:27:04;;;;;;;;;;;23.30;65.70;;;22.79;60.66;95509.66;4074514;34;20129;-87
2022/08/15 07:29:43;;;;;;;;;;;23.30;65.60;;;22.82;60.36;95508.09;4073929;34;19904;-86
2022/08/15 07:32:34;;;;;;;;;;;23.40;65.50;;;22.85;60.30;95503.78;4074145;34;19912;-86
2022/08/15 07:35:40;;;;;;;;;;;23.40;65.40;;;22.87;60.10;95507.81;4089182;34;20114;-86
2022/08/15 07:38:15;;;;;;;;;;;23.40;65.30;;;22.91;60.04;95510.69;4081120;34;19904;-86
2022/08/15 07:40:46;;;;;;;;;;;23.40;65.20;;;22.89;60.05;95508.28;4100415;34;19911;-86
2022/08/15 07:47:19;;;;;;;;;;;23.40;65.10;;;22.93;60.17;95511.91;4078290;34;19905;-86
2022/08/15 07:50:03;;;;;;;;;;;23.50;65.30;;;22.93;59.87;95517.50;4097535;34;20168;-85
2022/08/15 07:52:37;;;;;;;;;;;23.50;65.20;;;22.93;60.16;95511.91;4126579;34;20089;-86
2022/08/15 07:55:16;;;;;;;;;;;23.50;65.20;;;22.94;60.26;95516.31;4100090;34;20036;-86
2022/08/15 07:58:00;;;;;;;;;;;23.50;65.20;;;22.97;59.88;95523.19;4099706;34;20424;-86
2022/08/15 08:00:34;;;;;;;;;;;23.50;65.10;;;22.95;59.99;95512.38;4068808;35;23109;-85
2022/08/15 08:03:08;;;;;;;;;;;23.50;65.10;;;22.95;59.77;95517.94;4047519;35;19912;-86
2022/08/15 08:05:43;;;;;;;;;;;23.50;65.10;;;22.95;60.02;95520.72;4069115;35;19917;-86
2022/08/15 08:08:12;;;;;;;;;;;23.50;65.10;;;22.95;59.86;95526.31;4069018;35;20177;-85
2022/08/15 08:10:43;;;;;;;;;;;23.50;65.10;;;22.94;60.08;95521.91;4069289;35;20437;-84
2022/08/15 08:13:48;;;;;;;;;;;23.50;65.10;;;22.93;60.02;95528.66;4069177;34;19944;-86
2022/08/15 08:16:44;;;;;;;;;;;23.50;65.10;;;22.94;59.76;95523.91;4069956;34;20409;-87
2022/08/15 08:19:37;;;;;;;;;;;23.50;65.10;;;22.94;59.24;95527.50;4046922;35;20166;-86
2022/08/15 08:22:53;;;;;;;;;;;23.50;65.10;;;22.93;60.09;95520.28;4089159;34;19912;-86
2022/08/15 08:25:27;;;;;;;;;;;23.50;65.10;;;22.96;60.06;95516.78;4069035;35;19982;-85
2022/08/15 08:31:51;;;;;;;;;;;;;;;;;;;;;
2022/08/15 08:35:14;;;;;;;;;;;23.50;65.00;;;22.96;60.08;95516.78;4069934;35;19912;-86
2022/08/15 08:38:05;;;;;;;;;;;23.50;65.10;;;22.96;60.10;95519.56;4068704;35;20224;-86
2022/08/15 08:44:01;;;;;;;;;;;23.50;65.10;;;22.93;59.80;95514.72;4099532;34;19995;-86
2022/08/15 08:47:04;;;;;;;;;;;23.50;65.10;;;22.94;60.25;95504.38;4144635;34;20148;-86
2022/08/15 08:49:50;;;;;;;;;;;23.50;65.20;;;22.91;60.13;95500.34;4097507;34;19904;-86
2022/08/15 08:52:42;;;;;;;;;;;23.50;65.10;;;22.92;60.18;95504.72;4124362;34;20005;-86
2022/08/15 08:55:47;;;;;;;;;;;;;;;;;;;;;
2022/08/15 09:02:45;;;;;;;;;;;23.50;65.30;;;22.88;60.13;95489.91;4055474;34;19912;-86
2022/08/15 09:05:22;;;;;;;;;;;23.50;65.40;;;22.87;60.10;95482.72;4049016;34;19913;-85
2022/08/15 09:07:55;;;;;;;;;;;23.50;65.40;;;22.88;60.16;95484.31;4070719;34;19904;-86
2022/08/15 09:10:34;;;;;;;;;;;23.50;65.40;;;22.85;60.50;95476.69;4080894;34;19911;-86
2022/08/15 09:15:59;;;;;;;;;;;23.50;65.60;;;22.85;60.63;95468.31;4082199;34;20009;-86
2022/08/15 09:18:32;;;;;;;;;;;23.50;65.60;;;22.83;60.39;95465.06;4074780;34;19909;-87
2022/08/15 09:21:01;;;;;;;;;;;23.50;65.70;;;22.83;60.52;95465.06;4097249;34;20450;-86
2022/08/15 09:23:38;;;;;;;;;;;23.40;65.60;;;22.82;60.64;95458.69;4097448;34;20124;-86
2022/08/15 09:26:14;;;;;;;;;;;23.40;65.60;;;22.82;60.62;95460.66;4075302;34;20318;-86
2022/08/15 09:28:46;;;;;;;;;;;23.40;65.60;;;22.81;60.67;95461.84;4097025;34;19905;-86
2022/08/15 09:31:21;;;;;;;;;;;23.40;65.60;;;22.79;60.55;95456.63;4075406;34;19920;-87
2022/08/15 09:34:25;;;;;;;;;;;23.40;65.60;;;22.78;60.44;95457.81;4097215;34;19912;-87
2022/08/15 09:37:27;;;;;;;;;;;23.40;65.70;;;22.79;60.72;95458.59;4059388;34;19912;-86
2022/08/15 09:40:12;;;;;;;;;;;23.40;65.80;;;22.75;61.10;95450.16;4044749;34;19904;-86
2022/08/15 09:42:56;;;;;;;;;;;23.40;65.90;;;22.75;60.82;95452.97;4074831;34;20138;-86
2022/08/15 09:45:36;;;;;;;;;;;23.40;65.90;;;22.74;60.98;95458.94;4084675;34;20291;-86
2022/08/15 09:48:56;;;;;;;;;;;23.40;65.90;;;22.74;60.79;95461.72;4101140;34;19905;-85
2022/08/15 09:51:39;;;;;;;;;;;23.40;66.00;;;22.74;61.04;95458.94;4017972;35;19922;-87
2022/08/15 09:54:13;;;;;;;;;;;23.30;66.10;;;22.73;61.04;95454.50;4091191;34;19904;-87
2022/08/15 09:56:45;;;;;;;;;;;23.30;66.20;;;22.72;61.32;95458.47;4123598;34;19904;-86
2022/08/15 09:59:20;;;;;;;;;;;23.30;66.10;;;22.70;61.04;95455.25;4123395;34;20230;-86
2022/08/15 10:01:53;;;;;;;;;;;23.30;66.10;;;22.68;61.40;95453.63;4101112;34;20139;-86
2022/08/15 10:04:23;;;;;;;;;;;23.30;66.20;;;22.66;61.03;95460.75;4074740;34;19952;-86
2022/08/15 10:07:34;;;;;;;;;;;23.30;66.20;;;22.65;61.26;95459.97;4074623;34;20148;-86
2022/08/15 10:10:13;;;;;;;;;;;23.30;66.40;;;22.62;61.60;95466.28;4038803;34;19911;-85
2022/08/15 10:13:21;;;;;;;;;;;23.30;66.50;;;22.62;61.17;95468.25;4074698;34;20013;-87
2022/08/15 10:15:50;;;;;;;;;;;23.20;66.40;;;22.58;61.70;95459.00;4074685;34;19911;-86
2022/08/15 10:19:02;;;;;;;;;;;23.20;66.50;;;22.58;61.69;95464.59;4074235;34;19912;-85
2022/08/15 10:21:39;;;;;;;;;;;23.20;66.60;;;22.55;61.41;95460.53;4074606;34;19928;-86
2022/08/15 10:27:17;;;;;;;;;;;23.20;66.80;;;22.53;61.69;95465.66;4094559;34;19905;-86
2022/08/15 10:29:49;;;;;;;;;;;23.20;66.80;;;22.53;61.81;95460.09;4074294;34;19928;-86
2022/08/15 10:33:00;;;;;;;;;;;23.10;66.80;;;22.50;61.93;95461.63;4096459;34;20119;-86
2022/08/15 10:35:45;;;;;;;;;;;23.10;66.90;;;22.51;61.54;95451.31;4063987;34;19905;-86
2022/08/15 10:38:19;;;;;;;;;;;23.10;67.00;;;22.53;61.68;95446.13;4096898;34;19905;-85
2022/08/15 10:40:54;;;;;;;;;;;23.10;66.90;;;22.52;61.55;95448.13;4074575;34;20026;-86
2022/08/15 10:43:46;;;;;;;;;;;23.20;66.90;;;22.54;61.93;95442.19;4074257;34;20319;-86
2022/08/15 10:46:20;;;;;;;;;;;23.20;66.90;;;22.55;61.54;95445.78;4096479;34;19911;-85
2022/08/15 10:49:04;;;;;;;;;;;23.20;66.80;;;22.52;61.67;95439.75;4073814;34;19905;-87
2022/08/15 10:52:01;;;;;;;;;;;23.20;66.80;;;22.55;61.78;95443.00;4096544;34;20075;-86
2022/08/15 10:54:47;;;;;;;;;;;23.20;66.80;;;22.54;61.77;95428.22;4096315;34;20171;-86
2022/08/15 10:57:19;;;;;;;;;;;23.20;66.90;;;22.53;61.69;95441.38;4091311;34;19972;-86
2022/08/15 10:59:52;;;;;;;;;;;23.10;66.90;;;22.53;61.57;95434.97;4100639;34;19974;-86
2022/08/15 11:02:33;;;;;;;;;;;23.10;66.90;;;22.52;61.80;95431.41;4123045;34;19904;-85
2022/08/15 11:05:02;;;;;;;;;;;23.10;66.90;;;22.53;61.61;95432.19;4100630;34;19904;-85
2022/08/15 11:07:35;;;;;;;;;;;23.10;66.90;;;22.49;61.65;95418.19;4100152;34;20126;-86
2022/08/15 11:10:08;;;;;;;;;;;23.10;66.80;;;22.52;61.93;95433.41;4100716;34;20022;-86
2022/08/15 11:12:43;;;;;;;;;;;23.10;66.90;;;22.50;61.56;95428.16;4123702;34;19904;-86
2022/08/15 11:15:16;;;;;;;;;;;23.10;66.90;;;22.50;61.88;95428.16;4122692;34;20017;-86
2022/08/15 11:17:47;;;;;;;;;;;23.10;67.00;;;22.51;62.05;95437.34;4100176;34;20123;-86
2022/08/15 11:20:19;;;;;;;;;;;23.10;67.00;;;22.50;61.78;95436.53;4100626;34;20010;-86
2022/08/15 11:22:54;;;;;;;;;;;23.10;67.00;;;22.51;61.84;95435.34;4100621;34;19911;-87
2022/08/15 11:25:26;;;;;;;;;;;23.10;67.10;;;22.50;61.72;95422.59;4145525;34;19904;-86
2022/08/15 11:28:05;;;;;;;;;;;23.10;67.00;;;22.50;61.94;95430.16;4122247;34;20468;-86
2022/08/15 11:30:37;;;;;;;;;;;23.10;67.00;;;22.51;61.62;95426.19;4122702;34;19904;-87
2022/08/15 11:33:19;;;;;;;;;;;23.10;67.00;;;22.52;61.94;95422.25;4100295;34;19957;-87
2022/08/15 11:35:48;;;;;;;;;;;23.10;67.00;;;22.49;62.09;95415.41;4122823;34;20215;-87
2022/08/15 11:38:17;;;;;;;;;;;23.10;67.00;;;22.52;61.73;95413.88;4144931;34;19929;-86
2022/08/15 11:40:51;;;;;;;;;;;23.10;67.00;;;22.50;61.82;95417.00;4100451;34;19929;-86
2022/08/15 11:43:21;;;;;;;;;;;23.10;66.90;;;22.53;61.63;95412.66;4123498;34;20469;-86
2022/08/15 11:45:56;;;;;;;;;;;23.20;66.90;;;22.53;61.91;95412.66;4122521;34;20041;-87
2022/08/15 11:48:30;;;;;;;;;;;23.10;66.90;;;22.54;61.63;95403.13;4123085;34;20119;-87
2022/08/15 11:51:01;;;;;;;;;;;23.10;66.90;;;22.55;62.14;95396.38;4100310;34;20125;-86
2022/08/15 11:53:32;;;;;;;;;;;23.20;66.90;;;22.54;61.66;95394.75;4122447;34;20161;-86
2022/08/15 11:56:01;;;;;;;;;;;23.20;66.80;;;22.52;62.01;95389.56;4122625;34;20170;-87
2022/08/15 11:58:34;;;;;;;;;;;23.20;66.90;;;22.54;61.59;95386.38;4080189;34;20135;-86
2022/08/15 12:01:23;;;;;;;;;;;23.20;66.90;;;22.55;61.92;95387.22;4073765;34;20109;-86
2022/08/15 12:04:04;;;;;;;;;;;23.20;66.90;;;22.55;61.97;95388.00;4095893;34;20215;-86
2022/08/15 12:06:34;;;;;;;;;;;23.20;66.90;;;22.56;61.88;95384.03;4123387;34;19904;-86
2022/08/15 12:09:14;;;;;;;;;;;23.20;66.90;;;22.57;61.56;95385.66;4099473;34;19911;-85
2022/08/15 12:12:07;;;;;;;;;;;23.20;66.90;;;22.55;61.80;95388.00;4145321;34;20075;-86
2022/08/15 12:15:42;;;;;;;;;;;23.20;66.90;;;22.54;62.12;95380.81;4049103;35;20123;-86
2022/08/15 12:18:47;;;;;;;;;;;23.20;66.80;;;22.57;61.87;95374.50;4068673;35;20254;-86
2022/08/15 12:21:27;;;;;;;;;;;23.20;66.80;;;22.57;61.80;95374.50;4069144;35;20193;-85
2022/08/15 12:24:06;;;;;;;;;;;23.20;66.80;;;22.57;61.62;95368.94;4047210;35;20216;-86
2022/08/15 12:26:39;;;;;;;;;;;23.20;66.80;;;22.59;61.76;95365.78;4071464;34;20220;-86
2022/08/15 12:30:15;;;;;;;;;;;;;;;;;;;;;